createdAt,value
2018-07-31T00:01:38.405Z,67.20
2018-07-31T00:04:08.520Z,68.00
2018-07-31T00:06:38.325Z,67.00
2018-07-31T00:09:09.192Z,67.50
2018-07-31T00:11:38.889Z,66.90
2018-07-31T00:14:08.728Z,67.10
2018-07-31T00:16:38.429Z,67.20
2018-07-31T00:19:08.095Z,67.20
2018-07-31T00:21:37.947Z,67.80
2018-07-31T00:24:07.885Z,66.90
2018-07-31T00:26:37.657Z,67.30
2018-07-31T00:29:07.410Z,67.60
2018-07-31T00:31:37.054Z,67.80
2018-07-31T00:34:06.846Z,67.20
2018-07-31T00:36:36.632Z,67.70
2018-07-31T00:39:08.392Z,68.20
2018-07-31T00:44:07.239Z,68.00
2018-07-31T00:46:37.227Z,68.30
2018-07-31T00:49:07.152Z,68.30
2018-07-31T00:51:36.885Z,68.20
2018-07-31T00:54:06.830Z,68.00
2018-07-31T00:56:36.461Z,68.10
2018-07-31T00:59:06.218Z,67.30
2018-07-31T01:01:35.957Z,68.50
2018-07-31T01:04:05.753Z,67.70
2018-07-31T01:06:40.460Z,68.10
2018-07-31T01:09:11.077Z,68.60
2018-07-31T01:11:41.236Z,68.30
2018-07-31T01:14:11.344Z,68.90
2018-07-31T01:16:42.017Z,68.50
2018-07-31T01:19:12.347Z,68.40
2018-07-31T01:24:11.696Z,68.60
2018-07-31T01:26:41.471Z,68.90
2018-07-31T01:29:11.240Z,68.90
2018-07-31T01:31:40.674Z,68.60
2018-07-31T01:34:10.064Z,68.70
2018-07-31T01:36:39.455Z,68.40
2018-07-31T01:39:10.814Z,68.80
2018-07-31T01:41:40.583Z,69.00
2018-07-31T01:44:10.040Z,69.40
2018-07-31T01:46:39.823Z,68.90
2018-07-31T01:49:09.536Z,69.30
2018-07-31T01:51:39.373Z,70.40
2018-07-31T01:54:08.892Z,69.30
2018-07-31T01:56:38.274Z,69.30
2018-07-31T01:59:07.661Z,69.30
2018-07-31T02:01:37.107Z,69.00
2018-07-31T02:04:06.775Z,69.30
2018-07-31T02:06:36.189Z,69.20
2018-07-31T02:09:07.948Z,69.20
2018-07-31T02:11:42.798Z,70.00
2018-07-31T02:14:14.410Z,69.20
2018-07-31T02:16:47.242Z,69.20
2018-07-31T02:19:17.771Z,69.20
2018-07-31T02:21:47.161Z,69.20
2018-07-31T02:24:16.851Z,70.10
2018-07-31T02:26:46.495Z,69.30
2018-07-31T02:29:20.647Z,70.00
2018-07-31T02:31:50.041Z,69.60
2018-07-31T02:34:19.733Z,70.40
2018-07-31T02:36:49.137Z,71.30
2018-07-31T02:39:18.992Z,71.60
2018-07-31T02:41:48.757Z,70.40
2018-07-31T02:44:18.394Z,70.70
2018-07-31T02:46:48.295Z,70.30
2018-07-31T02:49:18.157Z,71.30
2018-07-31T02:51:47.579Z,70.60
2018-07-31T02:54:17.373Z,70.70
2018-07-31T02:56:46.780Z,69.90
2018-07-31T02:59:16.166Z,70.40
2018-07-31T03:01:45.862Z,70.80
2018-07-31T03:04:15.240Z,70.60
2018-07-31T03:06:44.666Z,70.90
2018-07-31T03:09:14.504Z,71.40
2018-07-31T03:11:43.904Z,71.50
2018-07-31T03:14:13.289Z,71.50
2018-07-31T03:16:42.687Z,71.20
2018-07-31T03:19:12.550Z,71.20
2018-07-31T03:21:42.223Z,71.30
2018-07-31T03:24:11.635Z,71.60
2018-07-31T03:26:41.052Z,71.90
2018-07-31T03:29:10.830Z,71.70
2018-07-31T03:31:40.627Z,72.00
2018-07-31T03:34:10.483Z,71.70
2018-07-31T03:36:40.042Z,71.50
2018-07-31T03:39:10.478Z,71.90
2018-07-31T03:41:40.185Z,71.60
2018-07-31T03:44:09.931Z,71.10
2018-07-31T03:46:39.527Z,71.70
2018-07-31T03:49:09.323Z,71.00
2018-07-31T03:51:39.068Z,71.20
2018-07-31T03:54:08.812Z,72.30
2018-07-31T03:56:39.496Z,71.90
2018-07-31T03:59:08.920Z,72.00
2018-07-31T04:01:38.303Z,71.60
2018-07-31T04:04:08.158Z,71.60
2018-07-31T04:06:37.983Z,71.40
2018-07-31T04:09:10.695Z,71.10
2018-07-31T04:11:40.178Z,71.30
2018-07-31T04:14:11.057Z,71.60
2018-07-31T04:16:40.943Z,71.60
2018-07-31T04:19:10.357Z,71.00
2018-07-31T04:21:40.168Z,71.10
2018-07-31T04:24:09.990Z,72.00
2018-07-31T04:26:43.373Z,71.80
2018-07-31T04:31:42.799Z,71.90
2018-07-31T04:34:12.564Z,71.00
2018-07-31T04:36:43.021Z,71.30
2018-07-31T04:39:14.364Z,71.60
2018-07-31T04:41:44.808Z,71.50
2018-07-31T04:44:14.723Z,71.10
2018-07-31T04:46:44.589Z,71.60
2018-07-31T04:49:14.951Z,71.20
2018-07-31T04:51:44.672Z,70.90
2018-07-31T04:54:14.479Z,70.60
2018-07-31T04:56:44.249Z,71.80
2018-07-31T04:59:14.010Z,70.50
2018-07-31T05:01:44.508Z,71.50
2018-07-31T05:04:14.204Z,71.40
2018-07-31T05:06:44.149Z,70.20
2018-07-31T05:09:13.981Z,69.80
2018-07-31T05:11:43.892Z,69.80
2018-07-31T05:14:13.666Z,69.90
2018-07-31T05:16:43.345Z,69.60
2018-07-31T05:19:12.764Z,69.40
2018-07-31T05:21:42.468Z,69.30
2018-07-31T05:24:12.196Z,68.90
2018-07-31T05:26:41.576Z,68.90
2018-07-31T05:31:40.593Z,69.00
2018-07-31T05:36:39.540Z,68.10
2018-07-31T05:39:11.128Z,67.80
2018-07-31T05:41:40.915Z,67.60
2018-07-31T05:44:10.676Z,67.40
2018-07-31T05:46:40.441Z,67.30
2018-07-31T05:49:09.856Z,67.00
2018-07-31T05:51:39.245Z,66.80
2018-07-31T05:54:08.653Z,66.90
2018-07-31T05:56:38.050Z,66.00
2018-07-31T05:59:07.512Z,66.40
2018-07-31T06:01:36.952Z,66.20
2018-07-31T06:04:06.473Z,66.00
2018-07-31T06:06:35.893Z,65.90
2018-07-31T06:09:07.306Z,65.70
2018-07-31T06:11:36.908Z,65.20
2018-07-31T06:14:07.256Z,65.60
2018-07-31T06:16:37.355Z,66.00
2018-07-31T06:19:07.223Z,65.90
2018-07-31T06:21:37.264Z,65.90
2018-07-31T06:24:07.107Z,65.80
2018-07-31T06:26:36.808Z,65.60
2018-07-31T06:29:06.522Z,65.30
2018-07-31T06:31:36.428Z,65.50
2018-07-31T06:34:06.325Z,65.40
2018-07-31T06:36:36.176Z,65.30
2018-07-31T06:39:08.240Z,65.10
2018-07-31T06:41:38.158Z,65.00
2018-07-31T06:44:08.340Z,64.60
2018-07-31T06:46:38.176Z,63.90
2018-07-31T06:49:08.076Z,63.70
2018-07-31T06:51:37.756Z,64.10
2018-07-31T06:54:07.517Z,63.50
2018-07-31T06:56:37.433Z,63.40
2018-07-31T06:59:07.240Z,63.20
2018-07-31T07:01:37.107Z,63.30
2018-07-31T07:04:06.879Z,62.60
2018-07-31T07:06:36.556Z,61.70
2018-07-31T07:09:08.837Z,58.70
2018-07-31T07:11:38.692Z,53.60
2018-07-31T07:14:08.513Z,49.20
2018-07-31T07:16:38.459Z,45.20
2018-07-31T07:19:08.455Z,42.10
2018-07-31T07:21:38.313Z,40.30
2018-07-31T07:24:08.190Z,37.50
2018-07-31T07:26:37.953Z,37.10
2018-07-31T07:29:07.908Z,34.60
2018-07-31T07:34:07.081Z,33.30
2018-07-31T07:36:36.944Z,31.90
2018-07-31T07:41:37.215Z,31.50
2018-07-31T07:44:07.156Z,30.50
2018-07-31T07:46:36.848Z,30.60
2018-07-31T07:49:06.728Z,29.90
2018-07-31T07:51:36.545Z,29.00
2018-07-31T07:54:06.333Z,28.60
2018-07-31T07:56:36.094Z,28.10
2018-07-31T07:59:05.949Z,27.80
2018-07-31T08:01:35.731Z,28.60
2018-07-31T08:04:05.559Z,27.90
2018-07-31T08:06:35.296Z,27.40
2018-07-31T08:11:35.073Z,26.70
2018-07-31T08:14:05.028Z,26.80
2018-07-31T08:19:03.892Z,26.80
2018-07-31T08:21:33.790Z,26.70
2018-07-31T08:24:03.484Z,27.00
2018-07-31T08:26:33.242Z,26.20
2018-07-31T08:29:02.948Z,26.40
2018-07-31T08:31:32.643Z,26.20
2018-07-31T08:34:02.331Z,26.00
2018-07-31T08:36:32.108Z,26.20
2018-07-31T08:39:01.867Z,25.40
2018-07-31T08:41:31.560Z,25.50
2018-07-31T08:44:01.210Z,25.80
2018-07-31T08:46:30.961Z,25.70
2018-07-31T08:49:00.726Z,24.70
2018-07-31T08:51:30.799Z,25.20
2018-07-31T08:54:00.696Z,25.30
2018-07-31T08:56:30.421Z,25.10
2018-07-31T08:59:00.171Z,24.80
2018-07-31T09:01:30.098Z,24.90
2018-07-31T09:03:59.887Z,24.80
2018-07-31T09:06:29.663Z,25.00
2018-07-31T09:08:59.563Z,24.60
2018-07-31T09:11:29.348Z,24.70
2018-07-31T09:16:28.245Z,24.70
2018-07-31T09:18:57.936Z,24.70
2018-07-31T09:21:27.639Z,25.00
2018-07-31T09:23:57.272Z,22.50
2018-07-31T09:26:27.104Z,24.10
2018-07-31T09:29:00.831Z,24.40
2018-07-31T09:31:30.724Z,24.10
2018-07-31T09:34:00.472Z,23.80
2018-07-31T09:36:30.184Z,24.30
2018-07-31T09:38:59.903Z,23.70
2018-07-31T09:41:29.703Z,23.80
2018-07-31T09:46:28.924Z,23.10
2018-07-31T09:48:58.790Z,22.50
2018-07-31T09:51:28.580Z,22.90
2018-07-31T09:53:58.556Z,23.80
2018-07-31T09:56:28.238Z,24.10
2018-07-31T09:58:58.188Z,24.30
2018-07-31T10:01:27.939Z,24.90
2018-07-31T10:03:57.765Z,23.40
2018-07-31T10:06:27.570Z,22.50
2018-07-31T10:08:57.460Z,24.20
2018-07-31T10:11:27.187Z,24.10
2018-07-31T10:13:56.962Z,24.40
2018-07-31T10:16:26.617Z,24.50
2018-07-31T10:18:56.316Z,24.10
2018-07-31T10:21:26.228Z,24.30
2018-07-31T10:23:56.056Z,24.00
2018-07-31T10:26:25.814Z,24.90
2018-07-31T10:31:24.672Z,25.30
2018-07-31T10:33:54.448Z,26.60
2018-07-31T10:36:24.201Z,26.80
2018-07-31T10:38:53.976Z,28.10
2018-07-31T10:41:23.768Z,28.40
2018-07-31T10:43:53.558Z,29.50
2018-07-31T10:46:23.393Z,29.60
2018-07-31T10:48:53.163Z,31.60
2018-07-31T10:51:22.839Z,32.40
2018-07-31T10:53:52.513Z,33.40
2018-07-31T10:56:22.381Z,33.80
2018-07-31T10:58:52.370Z,35.40
2018-07-31T11:01:22.446Z,35.70
2018-07-31T11:03:52.242Z,35.70
2018-07-31T11:06:22.223Z,35.90
2018-07-31T11:08:51.856Z,36.10
2018-07-31T11:11:21.557Z,36.90
2018-07-31T11:13:51.279Z,38.00
2018-07-31T11:16:21.040Z,37.20
2018-07-31T11:18:50.594Z,37.90
2018-07-31T11:21:20.466Z,37.40
2018-07-31T11:23:50.277Z,38.10
2018-07-31T11:26:19.959Z,37.50
2018-07-31T11:28:49.784Z,37.20
2018-07-31T11:31:19.441Z,37.30
2018-07-31T11:33:49.140Z,38.20
2018-07-31T11:36:18.919Z,39.50
2018-07-31T11:38:48.686Z,39.20
2018-07-31T11:41:18.556Z,39.20
2018-07-31T11:43:48.472Z,37.90
2018-07-31T11:46:18.301Z,38.30
2018-07-31T11:48:47.931Z,38.60
2018-07-31T11:51:17.768Z,39.70
2018-07-31T11:53:47.647Z,39.60
2018-07-31T11:56:17.449Z,39.60
2018-07-31T11:58:47.125Z,39.00
2018-07-31T12:01:16.771Z,38.00
2018-07-31T12:03:46.446Z,39.50
2018-07-31T12:06:16.306Z,40.10
2018-07-31T12:08:46.171Z,37.70
2018-07-31T12:11:16.029Z,39.40
2018-07-31T12:13:45.898Z,40.40
2018-07-31T12:16:15.786Z,40.50
2018-07-31T12:18:45.520Z,39.10
2018-07-31T12:21:15.284Z,40.00
2018-07-31T12:23:45.135Z,39.40
2018-07-31T12:26:14.906Z,39.80
2018-07-31T12:28:44.707Z,39.60
2018-07-31T12:31:14.422Z,40.40
2018-07-31T12:33:44.228Z,40.60
2018-07-31T12:36:14.123Z,41.00
2018-07-31T12:38:43.871Z,41.80
2018-07-31T12:41:13.674Z,41.10
2018-07-31T12:43:43.477Z,41.20
2018-07-31T12:46:13.276Z,40.90
2018-07-31T12:48:43.080Z,40.90
2018-07-31T12:53:42.178Z,41.40
2018-07-31T12:56:11.934Z,40.50
2018-07-31T12:58:41.706Z,40.50
2018-07-31T13:01:11.561Z,41.40
2018-07-31T13:03:41.348Z,41.90
2018-07-31T13:06:11.092Z,42.20
2018-07-31T13:08:43.359Z,42.20
2018-07-31T13:11:14.570Z,41.60
2018-07-31T13:13:44.193Z,41.60
2018-07-31T13:16:14.070Z,41.60
2018-07-31T13:21:13.144Z,41.30
2018-07-31T13:23:43.061Z,42.50
2018-07-31T13:26:12.908Z,43.00
2018-07-31T13:31:11.877Z,43.20
2018-07-31T13:33:41.656Z,42.70
2018-07-31T13:36:11.398Z,43.00
2018-07-31T13:38:41.080Z,43.40
2018-07-31T13:41:10.865Z,43.30
2018-07-31T13:43:40.691Z,42.80
2018-07-31T13:46:10.482Z,42.50
2018-07-31T13:51:09.257Z,43.30
2018-07-31T13:53:39.088Z,43.00
2018-07-31T13:56:08.681Z,42.90
2018-07-31T13:58:38.477Z,43.00
2018-07-31T14:01:08.479Z,43.20
2018-07-31T14:03:38.201Z,43.80
2018-07-31T14:06:08.136Z,43.60
2018-07-31T14:08:37.933Z,43.70
2018-07-31T14:11:07.621Z,43.10
2018-07-31T14:13:37.406Z,44.00
2018-07-31T14:16:07.267Z,43.60
2018-07-31T14:18:37.281Z,44.00
2018-07-31T14:21:07.073Z,43.40
2018-07-31T14:23:36.954Z,43.10
2018-07-31T14:28:36.085Z,44.10
2018-07-31T14:31:05.941Z,44.90
2018-07-31T14:33:35.809Z,43.90
2018-07-31T14:36:06.479Z,44.50
2018-07-31T14:38:36.294Z,45.50
2018-07-31T14:41:06.211Z,45.80
2018-07-31T14:43:36.035Z,44.10
2018-07-31T14:46:05.720Z,45.10
2018-07-31T14:48:35.500Z,44.70
2018-07-31T14:51:05.246Z,45.20
2018-07-31T14:53:35.009Z,45.60
2018-07-31T14:58:33.861Z,46.40
2018-07-31T15:01:03.652Z,46.30
2018-07-31T15:03:33.393Z,45.90
2018-07-31T15:06:03.181Z,46.40
2018-07-31T15:08:35.949Z,46.80
2018-07-31T15:11:05.720Z,47.10
2018-07-31T15:13:35.664Z,47.50
2018-07-31T15:18:34.602Z,47.50
2018-07-31T15:21:04.329Z,46.90
2018-07-31T15:23:40.012Z,47.20
2018-07-31T15:26:10.164Z,47.50
2018-07-31T15:28:39.853Z,47.70
2018-07-31T15:31:09.594Z,47.50
2018-07-31T15:33:39.285Z,47.00
2018-07-31T15:36:08.808Z,47.20
2018-07-31T15:38:38.536Z,46.80
2018-07-31T15:41:08.349Z,47.90
2018-07-31T15:43:38.056Z,47.30
2018-07-31T15:46:07.839Z,47.90
2018-07-31T15:51:06.704Z,47.40
2018-07-31T15:53:36.438Z,47.70
2018-07-31T15:56:06.207Z,48.30
2018-07-31T15:58:35.894Z,48.80
2018-07-31T16:01:05.593Z,48.60
2018-07-31T16:03:35.121Z,48.80
2018-07-31T16:06:05.574Z,49.00
2018-07-31T16:08:35.483Z,47.60
2018-07-31T16:11:04.860Z,47.60
2018-07-31T16:13:35.179Z,48.50
2018-07-31T16:16:05.095Z,47.70
2018-07-31T16:18:34.854Z,49.00
2018-07-31T16:21:05.276Z,48.90
2018-07-31T16:23:34.854Z,49.20
2018-07-31T16:26:04.677Z,49.50
2018-07-31T16:28:34.191Z,50.00
2018-07-31T16:31:03.862Z,49.90
2018-07-31T16:33:33.976Z,50.40
2018-07-31T16:36:03.806Z,50.00
2018-07-31T16:38:33.694Z,49.70
2018-07-31T16:41:03.132Z,50.30
2018-07-31T16:43:32.529Z,49.80
2018-07-31T16:46:01.957Z,50.00
2018-07-31T16:48:31.358Z,50.80
2018-07-31T16:51:00.734Z,51.10
2018-07-31T16:53:30.197Z,50.60
2018-07-31T16:55:59.592Z,50.70
2018-07-31T16:58:29.007Z,51.20
2018-07-31T17:00:58.359Z,51.50
2018-07-31T17:03:27.767Z,51.50
2018-07-31T17:05:57.157Z,52.40
2018-07-31T17:08:26.598Z,52.50
2018-07-31T17:10:55.968Z,52.90
2018-07-31T17:13:25.366Z,53.00
2018-07-31T17:15:54.749Z,53.10
2018-07-31T17:18:24.122Z,52.30
2018-07-31T17:20:53.996Z,51.90
2018-07-31T17:23:24.472Z,51.70
2018-07-31T17:25:53.838Z,52.40
2018-07-31T17:28:23.697Z,52.60
2018-07-31T17:30:53.625Z,52.60
2018-07-31T17:33:23.172Z,53.20
2018-07-31T17:35:53.277Z,53.80
2018-07-31T17:38:22.659Z,54.20
2018-07-31T17:40:52.585Z,54.10
2018-07-31T17:43:22.078Z,54.50
2018-07-31T17:45:52.033Z,54.70
2018-07-31T17:48:21.969Z,55.10
2018-07-31T17:50:52.004Z,55.70
2018-07-31T17:53:21.431Z,55.30
2018-07-31T17:55:51.403Z,55.30
2018-07-31T18:00:50.181Z,55.60
2018-07-31T18:03:20.668Z,55.90
2018-07-31T18:05:50.049Z,55.40
2018-07-31T18:08:20.106Z,56.00
2018-07-31T18:10:49.490Z,56.00
2018-07-31T18:13:18.852Z,56.50
2018-07-31T18:15:48.970Z,56.40
2018-07-31T18:18:18.978Z,56.50
2018-07-31T18:20:49.183Z,56.20
2018-07-31T18:23:18.649Z,56.30
2018-07-31T18:25:48.407Z,56.30
2018-07-31T18:28:17.776Z,56.90
2018-07-31T18:30:47.223Z,57.10
2018-07-31T18:33:17.336Z,56.70
2018-07-31T18:35:46.718Z,56.60
2018-07-31T18:38:16.077Z,55.70
2018-07-31T18:40:45.926Z,55.60
2018-07-31T18:43:15.338Z,55.70
2018-07-31T18:45:44.768Z,55.80
2018-07-31T18:48:14.124Z,56.10
2018-07-31T18:50:43.561Z,56.20
2018-07-31T18:53:13.512Z,56.80
2018-07-31T18:55:42.885Z,57.60
2018-07-31T18:58:12.270Z,57.80
2018-07-31T19:00:42.240Z,57.60
2018-07-31T19:03:11.642Z,57.40
2018-07-31T19:05:42.088Z,56.80
2018-07-31T19:08:12.034Z,57.50
2018-07-31T19:10:41.467Z,57.30
2018-07-31T19:13:11.636Z,58.00
2018-07-31T19:15:41.033Z,57.50
2018-07-31T19:18:11.010Z,58.50
2018-07-31T19:20:41.085Z,58.40
2018-07-31T19:23:10.476Z,57.80
2018-07-31T19:25:40.404Z,58.00
2018-07-31T19:28:10.312Z,57.90
2018-07-31T19:30:40.755Z,57.80
2018-07-31T19:33:11.284Z,58.30
2018-07-31T19:35:41.117Z,57.80
2018-07-31T19:38:10.531Z,58.00
2018-07-31T19:40:39.957Z,58.00
2018-07-31T19:43:09.356Z,57.90
2018-07-31T19:45:39.097Z,58.00
2018-07-31T19:48:08.551Z,58.00
2018-07-31T19:55:36.139Z,57.70
2018-07-31T19:58:05.556Z,57.80
2018-07-31T20:00:34.940Z,57.40
2018-07-31T20:03:04.721Z,57.70
2018-07-31T20:05:34.580Z,57.80
2018-07-31T20:08:04.022Z,57.80
2018-07-31T20:10:33.370Z,57.40
2018-07-31T20:13:02.843Z,56.60
2018-07-31T20:15:32.285Z,57.40
2018-07-31T20:18:02.119Z,58.10
2018-07-31T20:20:31.516Z,57.50
2018-07-31T20:25:30.492Z,57.30
2018-07-31T20:28:00.296Z,58.30
2018-07-31T20:30:29.909Z,58.70
2018-07-31T20:33:01.373Z,58.70
2018-07-31T20:38:01.323Z,58.30
2018-07-31T20:40:30.758Z,58.10
2018-07-31T20:43:01.571Z,58.70
2018-07-31T20:45:31.362Z,58.50
2018-07-31T20:48:00.784Z,58.60
2018-07-31T20:50:30.164Z,58.30
2018-07-31T20:55:29.636Z,59.00
2018-07-31T20:57:59.242Z,58.70
2018-07-31T21:00:28.957Z,57.30
2018-07-31T21:02:59.718Z,57.20
2018-07-31T21:05:30.106Z,56.50
2018-07-31T21:07:59.828Z,56.90
2018-07-31T21:10:29.608Z,56.70
2018-07-31T21:15:28.664Z,57.60
2018-07-31T21:17:58.375Z,58.60
2018-07-31T21:20:27.981Z,57.80
2018-07-31T21:22:57.848Z,57.30
2018-07-31T21:25:27.563Z,57.30
2018-07-31T21:27:58.109Z,57.40
2018-07-31T21:30:27.724Z,57.40
2018-07-31T21:32:57.100Z,58.50
2018-07-31T21:35:26.849Z,58.20
2018-07-31T21:37:56.674Z,58.10
2018-07-31T21:40:26.199Z,58.10
2018-07-31T21:42:55.982Z,58.00
2018-07-31T21:45:25.804Z,58.50
2018-07-31T21:47:55.579Z,57.80
2018-07-31T21:50:25.217Z,57.80
2018-07-31T21:52:55.076Z,58.00
2018-07-31T21:55:24.648Z,58.30
2018-07-31T21:57:54.244Z,58.80
2018-07-31T22:00:24.103Z,58.90
2018-07-31T22:02:53.644Z,58.50
2018-07-31T22:05:23.245Z,59.50
2018-07-31T22:07:53.038Z,58.80
2018-07-31T22:10:22.697Z,60.00
2018-07-31T22:12:52.344Z,61.20
2018-07-31T22:15:21.992Z,59.90
2018-07-31T22:17:51.627Z,60.10
2018-07-31T22:20:21.436Z,60.40
2018-07-31T22:22:51.241Z,61.30
2018-07-31T22:25:20.921Z,60.90
2018-07-31T22:27:50.608Z,61.00
2018-07-31T22:32:49.265Z,62.70
2018-07-31T22:35:19.060Z,62.40
2018-07-31T22:37:48.728Z,63.10
2018-07-31T22:40:18.380Z,63.30
2018-07-31T22:42:48.168Z,63.40
2018-07-31T22:45:17.724Z,64.00
2018-07-31T22:47:47.365Z,63.70
2018-07-31T22:50:17.205Z,63.30
2018-07-31T22:52:47.121Z,63.80
2018-07-31T22:55:17.018Z,64.40
2018-07-31T22:57:46.953Z,63.30
2018-07-31T23:00:16.731Z,63.80
2018-07-31T23:02:46.120Z,63.70
2018-07-31T23:05:15.831Z,63.10
2018-07-31T23:07:45.610Z,62.60
2018-07-31T23:10:15.442Z,63.90
2018-07-31T23:12:45.288Z,64.10
2018-07-31T23:15:15.196Z,64.40
2018-07-31T23:17:44.907Z,64.40
2018-07-31T23:20:14.320Z,64.60
2018-07-31T23:22:50.769Z,65.40
2018-07-31T23:25:20.624Z,66.30
2018-07-31T23:27:50.406Z,65.40
2018-07-31T23:30:20.167Z,66.00
2018-07-31T23:32:49.909Z,64.80
2018-07-31T23:35:19.702Z,65.50
2018-07-31T23:37:49.471Z,65.90
2018-07-31T23:40:19.121Z,65.70
2018-07-31T23:42:48.705Z,65.80
2018-07-31T23:45:18.336Z,65.70
2018-07-31T23:47:48.141Z,66.40
2018-07-31T23:50:17.746Z,66.10
2018-07-31T23:52:47.335Z,66.70
2018-07-31T23:55:17.168Z,66.40
2018-07-31T23:57:46.761Z,67.00
